Time;durP1;ratioP1;P1;durP2;ratioP2;P2;SDS_P1;SDS_P2;PMS_P1;PMS_P2;Temp;Humidity;BMP_temperature;BMP_pressure;BME280_temperature;BME280_humidity;BME280_pressure;Samples;Min_cycle;Max_cycle;Signal;HPM_P1;HPM_P2
2022/03/28 00:01:32;;;;;;;34.05;11.02;;;;;;;9.25;100.00;98894.00;4985240;28;20086;-55
2022/03/28 00:03:57;;;;;;;30.80;11.00;;;;;;;9.06;100.00;98896.13;4988295;28;20081;-56
2022/03/28 00:06:23;;;;;;;34.22;10.95;;;;;;;9.17;100.00;98890.69;4984527;28;20042;-54
2022/03/28 00:08:49;;;;;;;33.03;11.30;;;;;;;8.98;100.00;98888.47;4984800;28;20707;-54
2022/03/28 00:11:16;;;;;;;31.42;10.38;;;;;;;9.19;100.00;98883.72;4987068;28;20038;-54
2022/03/28 00:13:41;;;;;;;37.47;11.50;;;;;;;8.82;100.00;98887.06;4986526;28;20157;-54
2022/03/28 00:16:06;;;;;;;38.42;11.43;;;;;;;8.52;100.00;98883.31;4983139;28;20700;-54
2022/03/28 00:18:32;;;;;;;34.15;11.27;;;;;;;8.41;100.00;98880.88;4986070;28;20520;-54
2022/03/28 00:20:57;;;;;;;34.30;11.02;;;;;;;8.40;100.00;98876.56;4985152;28;20026;-54
2022/03/28 00:23:24;;;;;;;34.92;11.63;;;;;;;8.65;100.00;98872.63;4981211;28;20034;-56
2022/03/28 00:25:50;;;;;;;34.03;10.02;;;;;;;9.92;100.00;98872.50;4980688;28;20034;-54
2022/03/28 00:28:15;;;;;;;40.75;11.65;;;;;;;9.16;100.00;98875.97;4982415;28;20033;-55
2022/03/28 00:30:41;;;;;;;32.42;10.13;;;;;;;9.10;100.00;98869.16;4982733;28;20037;-54
2022/03/28 00:33:06;;;;;;;29.95;9.55;;;;;;;9.33;100.00;98879.06;4984454;28;20859;-56
2022/03/28 00:35:33;;;;;;;34.30;10.82;;;;;;;9.37;100.00;98865.09;4982468;28;21283;-54
2022/03/28 00:37:58;;;;;;;36.58;11.10;;;;;;;9.12;100.00;98874.34;4982240;28;20044;-56
2022/03/28 00:40:27;;;;;;;37.15;10.50;;;;;;;9.36;100.00;98868.59;4985618;28;20027;-56
2022/03/28 00:42:53;;;;;;;36.05;10.57;;;;;;;9.16;100.00;98870.78;4982923;28;20021;-54
2022/03/28 00:45:19;;;;;;;33.75;11.15;;;;;;;9.53;100.00;98864.75;4984892;28;20558;-54
2022/03/28 00:47:44;;;;;;;31.63;9.40;;;;;;;9.32;100.00;98855.66;4986850;28;20084;-54
2022/03/28 00:50:10;;;;;;;37.38;10.10;;;;;;;9.03;100.00;98860.63;4985790;28;20033;-55
2022/03/28 00:52:37;;;;;;;39.72;11.32;;;;;;;9.15;100.00;98858.63;4983621;28;20033;-54
2022/03/28 00:55:04;;;;;;;33.15;11.32;;;;;;;8.41;100.00;98854.88;4987931;28;20021;-53
2022/03/28 00:57:30;;;;;;;41.05;11.35;;;;;;;8.80;100.00;98852.41;4983799;28;20037;-54
2022/03/28 00:59:55;;;;;;;43.58;11.70;;;;;;;9.02;100.00;98848.50;4986956;28;20036;-55
2022/03/28 01:02:21;;;;;;;28.63;11.10;;;;;;;9.11;100.00;98836.19;4985788;28;20129;-55
2022/03/28 01:04:46;;;;;;;44.00;12.98;;;;;;;8.52;100.00;98841.72;4984734;28;20022;-54
2022/03/28 01:07:12;;;;;;;31.33;10.10;;;;;;;8.83;100.00;98842.81;4985235;28;20042;-54
2022/03/28 01:09:39;;;;;;;37.42;10.23;;;;;;;9.78;100.00;98839.00;4982744;28;20476;-53
2022/03/28 01:12:05;;;;;;;36.03;10.95;;;;;;;9.38;100.00;98840.78;4985880;28;20083;-53
2022/03/28 01:14:32;;;;;;;38.28;12.50;;;;;;;8.66;100.00;98837.09;4985572;28;20022;-53
2022/03/28 01:19:41;;;;;;;29.75;9.90;;;;;;;8.97;100.00;98834.75;4984050;28;20041;-55
2022/03/28 01:22:06;;;;;;;27.45;10.52;;;;;;;8.62;100.00;98843.22;4983204;28;20039;-55
2022/03/28 01:24:31;;;;;;;42.15;10.77;;;;;;;8.88;100.00;98834.94;4984624;28;20022;-56
2022/03/28 01:26:57;;;;;;;35.83;10.88;;;;;;;9.07;100.00;98831.03;4985005;28;20049;-54
2022/03/28 01:29:22;;;;;;;34.10;11.27;;;;;;;8.32;100.00;98835.09;4981405;28;20022;-53
2022/03/28 01:31:47;;;;;;;39.20;12.00;;;;;;;8.13;100.00;98828.53;4980705;28;20192;-55
2022/03/28 01:34:18;;;;;;;38.78;11.75;;;;;;;7.89;100.00;98835.88;4979942;28;20111;-54
2022/03/28 01:36:47;;;;;;;37.65;11.65;;;;;;;8.14;100.00;98831.09;4985853;28;20030;-53
2022/03/28 01:39:15;;;;;;;38.40;11.73;;;;;;;8.28;100.00;98833.44;4982340;28;20827;-54
2022/03/28 01:41:41;;;;;;;37.25;12.18;;;;;;;7.89;100.00;98828.09;4987270;28;20034;-55
2022/03/28 01:44:07;;;;;;;34.38;12.20;;;;;;;8.02;100.00;98824.38;4983580;28;20034;-54
2022/03/28 01:46:44;;;;;;;37.25;11.60;;;;;;;8.44;100.00;98818.47;4981437;28;20114;-56
2022/03/28 01:49:09;;;;;;;38.33;11.95;;;;;;;8.11;100.00;98820.78;4986397;28;20591;-54
2022/03/28 01:51:35;;;;;;;39.40;11.70;;;;;;;8.08;100.00;98823.41;4981466;28;20113;-54
2022/03/28 01:54:00;;;;;;;31.88;10.13;;;;;;;8.49;100.00;98825.28;4982305;28;20020;-53
2022/03/28 01:56:26;;;;;;;40.85;12.30;;;;;;;8.30;100.00;98811.72;4980787;28;20565;-54
2022/03/28 01:58:52;;;;;;;34.85;11.05;;;;;;;8.54;100.00;98819.97;4980718;28;20470;-55
2022/03/28 02:01:17;;;;;;;34.20;10.10;;;;;;;9.35;100.00;98816.53;4982743;28;20567;-54
2022/03/28 02:03:42;;;;;;;33.50;11.80;;;;;;;8.51;100.00;98820.06;4986248;28;20026;-54
2022/03/28 02:06:08;;;;;;;38.08;10.15;;;;;;;8.87;100.00;98812.38;4989644;28;20045;-54
2022/03/28 02:08:34;;;;;;;37.85;11.23;;;;;;;8.43;100.00;98815.00;4986080;28;20039;-54
2022/03/28 02:11:00;;;;;;;36.10;9.80;;;;;;;9.43;100.00;98819.84;4983230;28;20030;-54
2022/03/28 02:13:25;;;;;;;42.38;12.65;;;;;;;7.84;100.00;98817.75;4982073;28;20029;-55
2022/03/28 02:15:51;;;;;;;33.70;11.20;;;;;;;7.57;100.00;98819.06;4985201;28;20050;-54
2022/03/28 02:18:16;;;;;;;34.63;11.07;;;;;;;7.81;100.00;98817.81;4985738;28;20034;-55
2022/03/28 02:20:41;;;;;;;40.92;12.02;;;;;;;7.45;100.00;98814.94;4984914;28;20037;-55
2022/03/28 02:23:06;;;;;;;34.83;11.75;;;;;;;7.66;100.00;98818.06;4983025;28;20056;-55
2022/03/28 02:25:35;;;;;;;33.08;9.23;;;;;;;9.30;100.00;98813.19;4983270;28;20405;-55
2022/03/28 02:28:01;;;;;;;33.72;11.00;;;;;;;8.12;100.00;98809.47;4984280;28;20624;-54
2022/03/28 02:30:27;;;;;;;41.67;10.18;;;;;;;8.17;100.00;98810.25;4981649;28;20563;-55
2022/03/28 02:32:52;;;;;;;26.63;9.48;;;;;;;8.88;100.00;98812.38;4981236;28;20117;-54
2022/03/28 02:35:18;;;;;;;38.35;11.10;;;;;;;7.59;100.00;98811.25;4981102;28;20049;-54
2022/03/28 02:37:43;;;;;;;37.78;10.82;;;;;;;7.24;100.00;98815.22;4981942;28;20068;-53
2022/03/28 02:40:09;;;;;;;35.30;11.25;;;;;;;6.66;100.00;98807.38;4980044;28;20030;-54
2022/03/28 02:42:35;;;;;;;37.83;11.40;;;;;;;6.47;100.00;98809.31;4983110;28;20210;-56
2022/03/28 02:45:00;;;;;;;36.67;11.52;;;;;;;6.57;100.00;98805.72;4982061;28;20089;-55
2022/03/28 02:47:25;;;;;;;41.83;11.73;;;;;;;6.86;100.00;98807.13;4980707;28;20045;-54
2022/03/28 02:49:51;;;;;;;39.42;11.20;;;;;;;6.90;100.00;98794.97;4981320;28;20022;-56
2022/03/28 02:52:16;;;;;;;39.22;11.90;;;;;;;6.95;100.00;98795.78;4982044;28;20109;-55
2022/03/28 02:54:42;;;;;;;38.80;12.15;;;;;;;7.19;100.00;98801.50;4985029;28;20029;-55
2022/03/28 02:57:07;;;;;;;30.48;11.00;;;;;;;7.07;100.00;98805.09;4980316;28;20038;-54
2022/03/28 02:59:33;;;;;;;35.63;11.48;;;;;;;7.02;100.00;98789.63;4981228;28;20081;-53
2022/03/28 03:01:58;;;;;;;40.22;11.85;;;;;;;7.00;100.00;98791.34;4979971;28;20030;-53
2022/03/28 03:04:23;;;;;;;44.15;13.15;;;;;;;7.01;100.00;98795.66;4981485;28;20041;-54
2022/03/28 03:06:49;;;;;;;39.22;12.00;;;;;;;6.80;100.00;98798.53;4982905;28;20108;-54
2022/03/28 03:09:14;;;;;;;39.20;11.73;;;;;;;6.72;100.00;98796.06;4981005;28;20493;-56
2022/03/28 03:11:40;;;;;;;37.75;10.73;;;;;;;6.58;100.00;98791.06;4980121;28;20034;-54
2022/03/28 03:14:06;;;;;;;35.05;11.48;;;;;;;6.29;100.00;98787.06;4982329;28;20349;-54
2022/03/28 03:16:31;;;;;;;50.15;13.32;;;;;;;6.81;100.00;98785.56;4981188;28;20098;-56
2022/03/28 03:18:57;;;;;;;42.90;12.63;;;;;;;6.78;100.00;98779.56;4982591;28;20504;-55
2022/03/28 03:21:23;;;;;;;37.55;10.10;;;;;;;7.68;100.00;98786.00;4982725;28;20037;-54
2022/03/28 03:23:48;;;;;;;47.28;12.75;;;;;;;6.58;100.00;98775.50;4981568;28;20038;-54
2022/03/28 03:26:13;;;;;;;49.33;12.15;;;;;;;6.56;100.00;98785.00;4982534;28;20068;-54
2022/03/28 03:28:39;;;;;;;34.13;9.93;;;;;;;7.83;100.00;98778.81;4982592;28;20033;-55
2022/03/28 03:31:04;;;;;;;41.20;12.02;;;;;;;7.27;100.00;98768.50;4979516;28;20049;-55
2022/03/28 03:33:30;;;;;;;39.58;11.68;;;;;;;6.66;100.00;98773.66;4981614;28;20022;-53
2022/03/28 03:35:55;;;;;;;39.22;11.75;;;;;;;6.64;100.00;98775.41;4978874;28;20073;-56
2022/03/28 03:38:20;;;;;;;44.78;13.88;;;;;;;6.48;100.00;98772.16;4983965;28;20112;-55
2022/03/28 03:40:46;;;;;;;37.13;12.63;;;;;;;6.42;100.00;98766.19;4983623;28;20736;-55
2022/03/28 03:43:12;;;;;;;44.33;12.65;;;;;;;6.55;100.00;98771.19;4983409;28;20039;-55
2022/03/28 03:45:37;;;;;;;42.33;11.43;;;;;;;6.67;100.00;98770.22;4979417;28;20041;-55
2022/03/28 03:48:03;;;;;;;41.17;12.48;;;;;;;6.66;100.00;98759.84;4981028;28;20026;-55
2022/03/28 03:50:29;;;;;;;36.05;11.32;;;;;;;6.77;100.00;98767.50;4983525;28;20042;-54
2022/03/28 03:52:55;;;;;;;32.58;8.73;;;;;;;8.22;100.00;98763.41;4982170;28;20023;-54
2022/03/28 03:55:20;;;;;;;39.95;11.98;;;;;;;6.98;100.00;98761.97;4980335;28;20784;-56
2022/03/28 03:57:46;;;;;;;41.13;12.70;;;;;;;6.02;100.00;98758.88;4984154;28;20014;-54
2022/03/28 04:00:13;;;;;;;37.10;12.18;;;;;;;6.22;100.00;98754.31;4981999;28;20038;-56
2022/03/28 04:02:38;;;;;;;48.33;13.52;;;;;;;6.09;100.00;98760.53;4984321;28;20019;-55
2022/03/28 04:05:04;;;;;;;41.03;10.02;;;;;;;6.73;100.00;98751.97;4983963;28;20029;-55
2022/03/28 04:07:30;;;;;;;40.13;12.25;;;;;;;6.93;100.00;98743.91;4981668;28;20030;-57
2022/03/28 04:09:59;;;;;;;38.22;12.55;;;;;;;6.08;100.00;98746.69;4984366;28;20038;-54
2022/03/28 04:12:24;;;;;;;36.08;11.05;;;;;;;6.07;100.00;98749.31;4996056;28;20412;-57
2022/03/28 04:14:49;;;;;;;38.10;9.75;;;;;;;7.87;100.00;98744.97;4998621;28;20563;-55
2022/03/28 04:17:15;;;;;;;35.75;12.00;;;;;;;6.35;100.00;98737.75;4983145;28;20039;-55
2022/03/28 04:19:41;;;;;;;36.22;12.00;;;;;;;5.97;100.00;98736.47;4983907;28;20022;-54
2022/03/28 04:22:06;;;;;;;27.17;8.32;;;;;;;7.81;100.00;98737.31;4981549;28;20118;-55
2022/03/28 04:24:31;;;;;;;40.10;9.90;;;;;;;7.87;100.00;98724.19;4977959;28;20039;-56
2022/03/28 04:26:56;;;;;;;35.72;10.85;;;;;;;7.46;100.00;98723.19;4986972;28;20057;-55
2022/03/28 04:29:22;;;;;;;37.95;11.18;;;;;;;6.19;100.00;98733.63;4987147;28;20056;-54
2022/03/28 04:31:47;;;;;;;32.75;9.35;;;;;;;7.42;100.00;98731.06;4987253;28;21160;-55
2022/03/28 04:34:12;;;;;;;33.38;10.18;;;;;;;6.54;100.00;98730.63;4988435;28;20018;-55
2022/03/28 04:36:38;;;;;;;37.30;11.32;;;;;;;6.05;100.00;98726.03;4982138;28;20049;-55
2022/03/28 04:39:05;;;;;;;34.15;10.43;;;;;;;6.84;100.00;98735.41;4985253;28;20650;-56
2022/03/28 04:41:30;;;;;;;37.13;9.60;;;;;;;6.56;100.00;98727.97;4988296;28;20042;-54
2022/03/28 04:43:56;;;;;;;34.88;9.40;;;;;;;7.49;100.00;98717.94;4986501;28;20024;-56
2022/03/28 04:46:21;;;;;;;35.15;11.70;;;;;;;6.30;100.00;98729.16;4986637;28;20141;-55
2022/03/28 04:48:47;;;;;;;34.83;8.90;;;;;;;7.18;100.00;98729.72;4988634;28;20052;-55
2022/03/28 04:51:12;;;;;;;27.10;8.45;;;;;;;8.79;100.00;98725.88;4984056;28;20092;-56
2022/03/28 04:53:38;;;;;;;30.02;10.10;;;;;;;6.49;100.00;98728.97;4982097;28;20623;-54
2022/03/28 04:56:03;;;;;;;34.35;11.40;;;;;;;5.84;100.00;98729.66;4983337;28;20037;-54
2022/03/28 04:58:29;;;;;;;37.72;11.30;;;;;;;6.12;100.00;98731.97;4986125;28;20054;-54
2022/03/28 05:00:54;;;;;;;35.17;11.85;;;;;;;5.81;100.00;98727.13;4979664;28;20034;-56
2022/03/28 05:03:19;;;;;;;41.28;12.38;;;;;;;5.50;100.00;98732.56;4983807;28;20065;-55
2022/03/28 05:05:45;;;;;;;42.10;12.55;;;;;;;5.88;100.00;98728.78;4985102;28;20044;-54
2022/03/28 05:08:10;;;;;;;39.35;12.30;;;;;;;5.72;100.00;98732.38;4986466;28;20062;-55
2022/03/28 05:10:36;;;;;;;42.40;11.85;;;;;;;5.84;100.00;98727.06;4982417;28;20038;-54
2022/03/28 05:13:01;;;;;;;35.40;11.32;;;;;;;5.76;100.00;98729.72;4983667;28;20035;-54
2022/03/28 05:15:27;;;;;;;32.70;10.93;;;;;;;6.08;100.00;98738.91;4983382;28;20489;-54
2022/03/28 05:17:52;;;;;;;36.95;11.88;;;;;;;6.44;100.00;98735.94;4982669;28;20080;-55
2022/03/28 05:20:18;;;;;;;28.73;11.05;;;;;;;5.48;100.00;98739.50;4983265;28;20022;-56
2022/03/28 05:22:43;;;;;;;26.23;10.45;;;;;;;5.93;100.00;98732.16;4981995;28;20983;-56
2022/03/28 05:25:09;;;;;;;38.38;10.82;;;;;;;6.07;100.00;98741.56;4980814;28;20023;-55
2022/03/28 05:27:47;;;;;;;33.67;11.27;;;;;;;6.39;100.00;98745.50;4985927;28;20022;-56
2022/03/28 05:30:14;;;;;;;32.60;10.02;;;;;;;6.83;100.00;98741.47;4982770;28;20023;-56
2022/03/28 05:32:40;;;;;;;29.52;10.80;;;;;;;6.87;100.00;98743.97;4980691;28;20614;-54
2022/03/28 05:35:06;;;;;;;33.63;11.27;;;;;;;7.57;100.00;98737.72;4984167;28;20519;-55
2022/03/28 05:37:32;;;;;;;29.20;10.55;;;;;;;7.35;100.00;98735.47;4980268;28;20038;-54
2022/03/28 05:39:57;;;;;;;33.38;11.15;;;;;;;8.41;100.00;98732.69;4981886;28;20018;-56
2022/03/28 05:42:23;;;;;;;33.80;10.73;;;;;;;8.09;100.00;98736.81;4987871;28;20054;-56
2022/03/28 05:44:48;;;;;;;31.45;10.80;;;;;;;8.47;100.00;98722.19;4983952;28;20124;-55
2022/03/28 05:47:13;;;;;;;35.90;11.63;;;;;;;8.92;100.00;98716.88;4987027;28;20072;-56
2022/03/28 05:49:39;;;;;;;33.03;11.07;;;;;;;9.46;100.00;98723.41;4985067;28;20056;-55
2022/03/28 05:52:04;;;;;;;29.95;9.80;;;;;;;10.00;100.00;98724.63;4984357;28;20113;-58
2022/03/28 05:54:30;;;;;;;34.67;10.38;;;;;;;9.98;100.00;98722.06;4982339;28;20030;-53
2022/03/28 05:56:55;;;;;;;28.77;9.90;;;;;;;10.54;100.00;98721.38;4981445;28;20176;-55
2022/03/28 05:59:20;;;;;;;30.50;10.57;;;;;;;10.70;100.00;98726.16;4982875;28;20705;-54
2022/03/28 06:01:46;;;;;;;26.73;10.57;;;;;;;11.26;100.00;98726.13;4984613;28;20606;-54
2022/03/28 06:04:12;;;;;;;29.00;10.23;;;;;;;11.60;100.00;98727.66;4983619;28;20089;-56
2022/03/28 06:06:37;;;;;;;29.65;10.45;;;;;;;11.60;100.00;98719.81;4982296;28;20503;-54
2022/03/28 06:09:04;;;;;;;28.02;10.18;;;;;;;11.35;100.00;98725.84;4982644;28;20041;-56
2022/03/28 06:11:29;;;;;;;28.58;10.05;;;;;;;12.15;100.00;98717.94;4983785;28;20126;-55
2022/03/28 06:13:57;;;;;;;24.63;9.50;;;;;;;12.83;99.79;98723.28;4985686;28;20110;-55
2022/03/28 06:16:22;;;;;;;30.60;9.65;;;;;;;13.22;93.13;98717.38;4979468;28;20532;-55
2022/03/28 06:18:48;;;;;;;26.63;10.18;;;;;;;13.85;85.39;98717.41;4966028;28;20041;-55
2022/03/28 06:21:13;;;;;;;27.48;9.75;;;;;;;14.42;78.95;98719.31;4984556;28;20061;-55
2022/03/28 06:23:38;;;;;;;28.30;10.25;;;;;;;15.15;71.69;98711.56;4984806;28;20122;-56
2022/03/28 06:26:04;;;;;;;23.33;9.95;;;;;;;15.42;70.13;98698.88;4983622;28;20030;-57
2022/03/28 06:28:30;;;;;;;20.83;8.68;;;;;;;15.29;68.50;98710.88;4980139;28;20034;-56
2022/03/28 06:30:56;;;;;;;25.55;9.48;;;;;;;14.92;71.25;98704.78;4985124;28;20119;-55
2022/03/28 06:33:21;;;;;;;24.27;9.25;;;;;;;15.75;66.72;98698.09;4982647;28;20121;-56
2022/03/28 06:35:47;;;;;;;24.17;10.15;;;;;;;15.69;67.28;98701.03;4981113;28;20053;-57
2022/03/28 06:38:12;;;;;;;26.13;9.65;;;;;;;17.24;61.56;98695.38;4983420;28;20512;-56
2022/03/28 06:40:38;;;;;;;20.63;9.82;;;;;;;17.00;60.44;98692.34;4983688;28;20034;-56
2022/03/28 06:43:04;;;;;;;20.95;9.15;;;;;;;16.93;61.28;98699.75;4981585;28;20022;-57
2022/03/28 06:45:29;;;;;;;24.05;10.10;;;;;;;16.37;61.13;98698.38;4983014;28;20137;-56
2022/03/28 06:47:56;;;;;;;21.98;9.45;;;;;;;17.19;60.80;98686.03;4982906;28;20120;-57
2022/03/28 06:50:24;;;;;;;20.40;9.10;;;;;;;17.10;60.76;98688.25;4980628;28;20042;-56
2022/03/28 06:52:50;;;;;;;21.60;9.55;;;;;;;18.75;56.18;98685.47;4982001;28;20028;-58
2022/03/28 06:55:15;;;;;;;22.10;9.90;;;;;;;19.83;53.42;98680.16;4980322;28;20027;-56
2022/03/28 06:57:40;;;;;;;18.88;9.07;;;;;;;20.76;48.47;98676.38;4983769;28;20030;-57
2022/03/28 07:00:07;;;;;;;21.35;9.30;;;;;;;20.22;50.77;98691.59;4982879;28;20062;-56
2022/03/28 07:02:32;;;;;;;18.67;9.25;;;;;;;21.07;48.38;98684.78;4980375;28;20037;-57
2022/03/28 07:04:58;;;;;;;20.60;9.27;;;;;;;21.71;45.71;98682.63;4980481;28;20049;-56
2022/03/28 07:07:24;;;;;;;17.17;9.10;;;;;;;22.14;45.64;98679.31;4984561;28;20038;-56
2022/03/28 07:09:49;;;;;;;17.67;9.07;;;;;;;23.71;43.05;98681.81;4983910;28;20030;-57
2022/03/28 07:12:14;;;;;;;21.52;9.10;;;;;;;22.63;44.02;98681.78;4980076;28;20038;-56
2022/03/28 07:14:40;;;;;;;20.80;9.10;;;;;;;24.11;41.53;98677.59;4985336;28;20045;-57
2022/03/28 07:17:06;;;;;;;17.27;9.45;;;;;;;24.32;40.58;98670.41;4984320;28;20050;-55
2022/03/28 07:19:31;;;;;;;16.73;8.85;;;;;;;24.22;40.82;98675.72;4985182;28;20026;-55
2022/03/28 07:21:57;;;;;;;16.05;8.82;;;;;;;25.59;39.12;98676.84;4980248;28;20493;-58
2022/03/28 07:24:23;;;;;;;17.13;9.13;;;;;;;24.83;39.37;98663.28;4977789;28;20043;-56
2022/03/28 07:26:49;;;;;;;14.68;9.02;;;;;;;24.01;40.39;98666.91;4983304;28;20038;-56
2022/03/28 07:29:17;;;;;;;14.45;8.48;;;;;;;25.34;39.66;98667.59;4984480;28;20112;-56
2022/03/28 07:31:47;;;;;;;14.57;8.90;;;;;;;25.23;38.83;98658.84;4982762;28;20041;-58
2022/03/28 07:34:30;;;;;;;16.17;9.60;;;;;;;25.72;38.51;98660.53;4985025;28;20435;-57
2022/03/28 07:37:02;;;;;;;18.50;9.25;;;;;;;27.20;36.07;98657.06;4983495;28;20038;-55
2022/03/28 07:39:28;;;;;;;16.40;9.48;;;;;;;24.51;39.84;98650.97;4985172;28;20031;-54
2022/03/28 07:41:54;;;;;;;15.48;9.52;;;;;;;24.09;40.95;98648.41;4987117;28;20040;-56
2022/03/28 07:44:20;;;;;;;14.18;9.02;;;;;;;27.06;37.10;98650.44;4988000;28;20467;-57
2022/03/28 07:46:45;;;;;;;14.10;9.73;;;;;;;26.14;37.31;98648.66;4982471;28;20046;-55
2022/03/28 07:49:12;;;;;;;15.93;9.15;;;;;;;26.49;37.14;98655.97;4986412;28;20548;-55
2022/03/28 07:51:38;;;;;;;13.70;9.18;;;;;;;27.60;35.57;98641.56;4987152;28;20058;-56
2022/03/28 07:54:04;;;;;;;12.75;8.60;;;;;;;26.38;37.54;98650.81;4987361;28;20122;-56
2022/03/28 07:56:31;;;;;;;14.13;9.70;;;;;;;26.00;37.50;98646.44;4985348;28;20061;-55
2022/03/28 07:58:57;;;;;;;14.93;9.02;;;;;;;26.14;36.69;98643.31;4986805;28;20030;-55
2022/03/28 08:01:22;;;;;;;13.18;8.93;;;;;;;26.25;37.63;98639.63;4985311;28;20093;-56
2022/03/28 08:03:48;;;;;;;14.45;9.07;;;;;;;25.57;37.55;98630.75;4984698;28;20022;-56
2022/03/28 08:06:13;;;;;;;17.73;9.57;;;;;;;26.26;37.97;98638.59;4984913;28;20123;-57
2022/03/28 08:08:38;;;;;;;17.23;10.32;;;;;;;25.01;40.14;98634.09;4983656;28;20233;-56
2022/03/28 08:11:07;;;;;;;17.67;10.02;;;;;;;26.24;37.29;98638.75;4987571;28;20094;-56
2022/03/28 08:13:34;;;;;;;13.35;8.50;;;;;;;28.41;35.28;98630.47;4988167;28;20037;-56
2022/03/28 08:15:59;;;;;;;18.35;9.38;;;;;;;26.85;36.92;98631.13;4985075;28;20030;-56
2022/03/28 08:18:26;;;;;;;19.70;9.40;;;;;;;27.92;36.08;98624.03;4986407;28;20026;-57
2022/03/28 08:20:52;;;;;;;17.98;9.45;;;;;;;29.03;34.46;98623.97;4982780;28;20029;-56
2022/03/28 08:23:20;;;;;;;16.35;9.00;;;;;;;27.83;35.25;98621.28;4987388;28;20018;-55
2022/03/28 08:25:46;;;;;;;19.58;9.18;;;;;;;27.85;35.97;98621.97;4987014;28;20533;-57
2022/03/28 08:28:11;;;;;;;18.35;10.10;;;;;;;27.88;35.85;98613.63;4987447;28;20041;-55
2022/03/28 08:30:37;;;;;;;19.60;10.32;;;;;;;27.07;36.67;98614.66;4976526;28;20034;-58
2022/03/28 08:33:02;;;;;;;20.42;10.82;;;;;;;28.30;34.43;98603.94;4981621;28;20026;-56
2022/03/28 08:35:27;;;;;;;22.13;9.77;;;;;;;26.77;36.91;98607.81;4981373;28;20042;-56
2022/03/28 08:37:53;;;;;;;18.65;10.27;;;;;;;28.27;34.83;98610.47;4987457;28;20476;-56
2022/03/28 08:40:19;;;;;;;22.63;10.70;;;;;;;30.04;32.43;98595.91;4985455;28;20062;-57
2022/03/28 08:42:46;;;;;;;23.60;11.50;;;;;;;27.69;35.56;98600.41;4985660;28;20505;-57
2022/03/28 08:45:14;;;;;;;25.48;11.25;;;;;;;28.55;35.16;98599.56;4982676;28;20590;-57
2022/03/28 08:47:42;;;;;;;19.00;10.18;;;;;;;30.52;31.74;98602.13;4983696;28;20396;-56
2022/03/28 08:50:10;;;;;;;19.30;10.02;;;;;;;30.04;32.44;98595.06;4984405;28;20063;-56
2022/03/28 08:52:42;;;;;;;19.45;9.90;;;;;;;28.61;33.77;98590.84;4983258;28;20030;-56
2022/03/28 08:55:09;;;;;;;17.20;9.98;;;;;;;27.54;35.24;98589.44;4983140;28;20487;-55
2022/03/28 08:57:34;;;;;;;15.18;8.07;;;;;;;30.13;32.54;98594.88;4981996;28;20304;-56
2022/03/28 09:00:00;;;;;;;17.05;9.10;;;;;;;27.25;35.10;98587.84;4983454;28;20301;-57
2022/03/28 09:02:41;;;;;;;17.50;9.90;;;;;;;27.99;34.11;98575.00;4984131;28;20492;-57
2022/03/28 09:05:09;;;;;;;19.23;10.05;;;;;;;30.35;31.12;98584.38;4986251;28;20202;-57
2022/03/28 09:07:34;;;;;;;15.73;8.70;;;;;;;31.44;29.91;98581.63;4982691;28;20046;-56
2022/03/28 09:10:03;;;;;;;17.10;9.40;;;;;;;29.93;31.29;98572.06;4985621;28;20374;-57
2022/03/28 09:12:28;;;;;;;13.32;8.00;;;;;;;29.98;31.32;98569.72;4986173;28;20035;-55
2022/03/28 09:15:01;;;;;;;20.63;8.30;;;;;;;31.22;29.43;98567.19;4983911;28;20049;-55
2022/03/28 09:17:27;;;;;;;15.45;8.73;;;;;;;29.26;30.84;98569.63;4984736;28;20406;-56
2022/03/28 09:19:55;;;;;;;18.60;9.05;;;;;;;28.94;31.83;98558.69;4983891;28;20499;-58
2022/03/28 09:22:29;;;;;;;16.33;9.13;;;;;;;30.63;29.60;98562.38;4980476;28;20707;-56
2022/03/28 09:24:59;;;;;;;16.58;8.32;;;;;;;30.97;28.55;98553.06;4980608;28;20037;-56
2022/03/28 09:27:27;;;;;;;18.35;9.32;;;;;;;27.93;30.70;98556.03;4979961;28;20119;-57
2022/03/28 09:29:53;;;;;;;17.17;8.65;;;;;;;29.42;30.04;98554.31;4983691;28;20821;-56
2022/03/28 09:32:27;;;;;;;15.80;8.88;;;;;;;31.72;26.54;98543.31;4984389;28;20034;-55
2022/03/28 09:35:12;;;;;;;19.10;9.00;;;;;;;28.90;28.58;98533.19;4985119;28;20022;-56
2022/03/28 09:37:58;;;;;;;19.08;9.07;;;;;;;30.22;28.44;98528.41;4999254;28;20050;-57
2022/03/28 09:40:43;;;;;;;22.15;9.73;;;;;;;29.78;27.88;98527.06;5004260;28;20060;-55
2022/03/28 09:43:20;;;;;;;17.08;8.27;;;;;;;29.50;27.51;98532.00;5003065;28;20076;-57
2022/03/28 09:45:53;;;;;;;17.88;9.63;;;;;;;27.13;28.24;98527.50;5005196;28;20301;-56
2022/03/28 09:48:22;;;;;;;20.25;10.15;;;;;;;27.20;29.15;98525.03;5004358;28;20029;-54
2022/03/28 09:50:55;;;;;;;20.85;9.27;;;;;;;28.28;29.05;98522.81;5002145;28;20072;-54
2022/03/28 09:53:25;;;;;;;17.52;9.10;;;;;;;27.88;29.71;98521.59;5003638;28;20103;-58
2022/03/28 09:56:03;;;;;;;21.60;10.00;;;;;;;28.44;28.41;98501.38;5003199;28;20041;-55
2022/03/28 09:58:56;;;;;;;16.70;8.27;;;;;;;30.50;27.17;98507.25;5005326;28;20025;-57
2022/03/28 10:01:32;;;;;;;17.88;9.23;;;;;;;28.67;28.44;98494.56;5000408;28;20097;-54
2022/03/28 10:04:05;;;;;;;18.80;8.43;;;;;;;28.62;28.17;98487.84;4996051;28;20038;-55
2022/03/28 10:06:31;;;;;;;18.98;8.82;;;;;;;28.74;27.70;98490.22;5001010;28;20112;-56
2022/03/28 10:08:57;;;;;;;20.35;8.90;;;;;;;28.18;28.65;98490.75;5005168;28;20042;-59
2022/03/28 10:11:24;;;;;;;18.08;8.32;;;;;;;27.70;29.45;98486.88;4999606;28;20745;-57
2022/03/28 10:13:49;;;;;;;22.42;10.45;;;;;;;27.81;28.54;98478.53;5002964;28;20021;-56
2022/03/28 10:16:15;;;;;;;23.75;10.40;;;;;;;28.30;28.18;98477.88;5004483;28;20026;-57
2022/03/28 10:18:44;;;;;;;22.88;10.10;;;;;;;26.78;29.80;98474.84;5001755;28;20041;-55
2022/03/28 10:21:15;;;;;;;19.83;8.10;;;;;;;28.23;27.75;98469.66;4995957;28;20041;-55
2022/03/28 10:24:35;;;;;;;19.58;8.93;;;;;;;27.20;28.24;98468.78;5004756;28;20037;-55
2022/03/28 10:27:02;;;;;;;20.10;9.27;;;;;;;27.32;28.15;98466.75;4981575;28;20120;-54
2022/03/28 10:29:41;;;;;;;18.40;7.65;;;;;;;27.65;26.99;98462.38;5000473;28;20108;-54
2022/03/28 10:32:15;;;;;;;20.35;8.48;;;;;;;25.81;28.55;98453.09;4982565;28;20052;-55
2022/03/28 10:35:00;;;;;;;18.13;7.50;;;;;;;27.28;28.17;98450.16;4982820;28;20026;-55
2022/03/28 10:37:50;;;;;;;16.63;6.88;;;;;;;27.38;27.15;98445.50;4983089;28;20034;-55
2022/03/28 10:40:29;;;;;;;18.83;7.85;;;;;;;26.45;26.90;98434.38;4983041;28;20564;-56
2022/03/28 10:43:14;;;;;;;18.52;7.57;;;;;;;26.09;27.20;98437.06;4978706;28;20048;-55
2022/03/28 10:45:50;;;;;;;22.95;9.20;;;;;;;25.02;27.80;98433.81;4984527;28;20045;-56
2022/03/28 10:48:17;;;;;;;19.25;8.20;;;;;;;26.86;25.81;98422.22;4986377;28;20099;-56
2022/03/28 10:50:51;;;;;;;21.88;9.43;;;;;;;25.16;27.29;98418.31;4983631;28;20060;-56
2022/03/28 10:53:37;;;;;;;18.88;7.82;;;;;;;26.31;26.85;98412.53;4984740;28;20090;-56
2022/03/28 10:56:25;;;;;;;29.38;10.88;;;;;;;24.42;26.79;98403.81;4984124;28;20046;-56
2022/03/28 10:58:56;;;;;;;22.08;8.57;;;;;;;26.66;26.84;98405.50;4984267;28;20034;-56
2022/03/28 11:01:28;;;;;;;21.33;7.40;;;;;;;26.88;28.34;98396.13;4985625;28;20046;-56
2022/03/28 11:04:00;;;;;;;;;;;;;;;25.62;27.55;98392.56;4981883;28;20034;-55
2022/03/28 11:06:52;;;;;;;24.08;8.18;;;;;;;26.58;27.23;98378.69;4983691;28;19913;-55
2022/03/28 11:09:56;;;;;;;25.92;8.90;;;;;;;25.90;26.85;98385.38;4985035;28;20149;-56
2022/03/28 11:12:33;;;;;;;23.92;8.30;;;;;;;26.01;28.23;98379.03;4985536;28;20056;-56
2022/03/28 11:15:11;;;;;;;23.50;8.82;;;;;;;27.34;25.39;98369.16;4988346;28;20415;-56
2022/03/28 11:17:50;;;;;;;29.48;10.95;;;;;;;26.18;26.31;98374.66;4986463;28;20773;-57
2022/03/28 11:20:20;;;;;;;24.58;9.60;;;;;;;25.53;27.06;98377.44;4984798;28;20030;-56
2022/03/28 11:22:57;;;;;;;23.98;9.93;;;;;;;26.33;27.32;98364.25;4986506;28;20021;-57
2022/03/28 11:25:28;;;;;;;22.20;9.10;;;;;;;27.29;27.07;98350.91;4985166;28;20026;-55
2022/03/28 11:28:23;;;;;;;22.95;9.27;;;;;;;26.35;27.13;98335.53;4985818;28;20030;-55